• Join FlightAware (Why Join?)
  • Login
  • US Flag 
09:19AM EDT


 

Airport Tracker/Info


-or-


 

Live Flight TrackerFlight Track Log ✈ N484AS ✈ 19-Sep-2013 ✈ PAHO / HOM - PANC

Flight Track Log - Related Links

Times and Time Zones

All times are in EDT time to prevent confusion due to time zone crossing. See the N484AS flight status page for this flight to view local times or setup timezone preferences in your user account.

Time Position Orientation Groundspeed Altitude Reporting Facility
EDT Latitude Longitude Course Direction KTS MPH feet Rate Location/Type
10:27PM 59.7000 -151.3333 26° Northeast 140 161 4,400  Level Anchorage Center
10:28PM 59.7333 -151.3167 14° North 140 161 6,200 1,740 Climbing Anchorage Center
10:29PM 59.7667 -151.2833 27° Northeast 120 138 8,000 1,680 Climbing Anchorage Center
10:30PM 59.8167 -151.2500 19° North 160 184 9,600 1,740 Climbing Anchorage Center
10:31PM 59.9448 -151.1991 25° Northeast  Level Estimated
10:31PM 59.8500 -151.2167 27° Northeast 160 184 11,500  Level Anchorage Center
10:32PM 59.9943 -151.1510 26° Northeast  Level FlightAware Approximate
10:32PM 59.8833 -151.1833 27° Northeast 160 184 12,900  Level Anchorage Center
10:33PM 59.9333 -151.1500 18° North 160 184 14,700 1,500 Climbing Anchorage Center
10:34PM 59.9667 -151.1000 37° Northeast 170 196 16,000 600 Climbing Anchorage Center
10:35PM 60.0167 -151.0667 18° North 210 242 16,000  Level Anchorage Center
10:36PM 60.0667 -151.0167 27° Northeast 220 253 16,100  Climbing Anchorage Center
10:37PM 60.1333 -150.9667 20° North 220 253 16,000 -60 Descending Anchorage Center
10:38PM 60.1833 -150.9000 34° Northeast 220 253 16,000  Level Anchorage Center
10:39PM 60.2500 -150.8500 20° North 220 253 16,000  Level Anchorage Center
10:40PM 60.3000 -150.8000 26° Northeast 220 253 16,000  Level Anchorage Center
10:41PM 60.3500 -150.7500 26° Northeast 220 253 16,000  Level Anchorage Center
10:42PM 60.4167 -150.7000 20° North 220 253 16,000  Level Anchorage Center
10:43PM 60.4667 -150.6500 26° Northeast 220 253 16,000 -600 Level Anchorage Center
10:44PM 60.5333 -150.5833 26° Northeast 230 265 14,800 -1,260 Descending Anchorage Center
10:45PM 60.5833 -150.5333 26° Northeast 230 265 13,500 -1,320 Descending Anchorage Center
10:47PM 60.6699 -150.4862 24° Northeast  Level FlightAware Approximate
10:54PM 61.0148 -150.1357 31° Northeast  Level FlightAware Approximate
10:55PM 61.0659 -150.0940 21° North  Level FlightAware Approximate
10:56PM 61.1158 -150.0469 31° Northeast  Level FlightAware Approximate
10:57PM 61.1630 -149.9880 31° Northeast  Level FlightAware Approximate
10:58PM 61.1667 -149.9833 31° Northeast  Level FlightAware Approximate
10:59PM 61.1741 -149.9982 31° Northeast  Level Estimated
11:00PM 61.1741 -149.9982 31° Northeast  Level Estimated
11:01PM 61.1741 -149.9982 31° Northeast  Level Estimated
11:02PM 61.1741 -149.9982 31° Northeast  Level Estimated
11:03PM 61.1741 -149.9982 31° Northeast  Level Estimated
11:04PM 61.1741 -149.9982 31° Northeast  Level Estimated
11:05PM 61.1741 -149.9982 31° Northeast  Level Estimated
11:06PM 61.1741 -149.9982 31° Northeast  Level Estimated
11:07PM 61.1741 -149.9982 31° Northeast  Level Estimated
11:08PM 61.1741 -149.9982 31° Northeast  Level Estimated
11:09PM 61.1741 -149.9982 31° Northeast  Level Estimated
11:10PM 61.1741 -149.9982 31° Northeast  Level Estimated
11:11PM 61.1741 -149.9982 31° Northeast  Level Estimated